Time;durP1;ratioP1;P1;durP2;ratioP2;P2;SDS_P1;SDS_P2;PMS_P1;PMS_P2;Temp;Humidity;BMP_temperature;BMP_pressure;BME280_temperature;BME280_humidity;BME280_pressure;Samples;Min_cycle;Max_cycle;Signal;HPM_P1;HPM_P2
2023/12/08 00:00:28;;;;;;;14.48;4.93;;;;;;;-1.75;100.00;100923.34;6023683;28;20076;-73
2023/12/08 00:03:24;;;;;;;11.47;4.50;;;;;;;-1.79;100.00;100919.16;6024705;28;20390;-73
2023/12/08 00:06:19;;;;;;;16.70;5.73;;;;;;;-1.79;100.00;100920.94;6026601;28;20027;-72
2023/12/08 00:09:14;;;;;;;14.53;6.37;;;;;;;-1.77;100.00;100921.72;6024051;28;20557;-73
2023/12/08 00:12:09;;;;;;;18.00;6.40;;;;;;;-1.77;100.00;100919.97;6024308;28;20039;-72
2023/12/08 00:15:06;;;;;;;12.68;5.50;;;;;;;-1.72;100.00;100920.63;6024091;28;20056;-73
2023/12/08 00:18:01;;;;;;;12.98;5.30;;;;;;;-1.76;100.00;100892.22;6018581;28;20034;-76
2023/12/08 00:20:57;;;;;;;13.30;5.70;;;;;;;-1.67;100.00;100890.09;6021436;28;20390;-72
2023/12/08 00:23:52;;;;;;;18.07;6.63;;;;;;;-1.68;100.00;100878.00;6024367;28;20473;-77
2023/12/08 00:26:47;;;;;;;15.65;5.88;;;;;;;-1.63;100.00;100865.63;6024344;28;20357;-73
2023/12/08 00:29:44;;;;;;;15.70;5.83;;;;;;;-1.61;100.00;100861.25;5987720;28;20038;-73
2023/12/08 00:32:39;;;;;;;15.95;6.03;;;;;;;-1.54;100.00;100852.25;6022959;28;20121;-73
2023/12/08 00:35:35;;;;;;;20.83;7.73;;;;;;;-1.54;100.00;100841.84;6025873;28;20033;-71
2023/12/08 00:38:30;;;;;;;22.33;6.60;;;;;;;-1.48;100.00;100852.00;6022722;28;20034;-72
2023/12/08 00:41:25;;;;;;;13.40;5.73;;;;;;;-1.46;100.00;100851.91;6022576;28;20124;-73
2023/12/08 00:44:21;;;;;;;15.65;5.50;;;;;;;-1.44;100.00;100850.94;6021296;28;20030;-74
2023/12/08 00:47:16;;;;;;;16.03;6.73;;;;;;;-1.45;100.00;100838.88;6024011;28;20552;-72
2023/12/08 00:50:11;;;;;;;20.30;7.27;;;;;;;-1.50;100.00;100835.63;6022925;28;20030;-73
2023/12/08 00:53:07;;;;;;;16.60;6.67;;;;;;;-1.54;100.00;100828.00;6023596;28;20122;-73
2023/12/08 00:56:02;;;;;;;17.07;6.83;;;;;;;-1.49;100.00;100826.03;6009933;28;20018;-73
2023/12/08 00:58:57;;;;;;;20.63;7.77;;;;;;;-1.55;100.00;100808.97;6027789;28;20058;-75
2023/12/08 01:01:52;;;;;;;14.90;5.33;;;;;;;-1.53;100.00;100807.16;6028222;28;20034;-74
2023/12/08 01:04:48;;;;;;;19.53;5.37;;;;;;;-1.53;100.00;100794.16;6028452;28;20132;-73
2023/12/08 01:07:43;;;;;;;16.97;6.67;;;;;;;-1.51;100.00;100796.69;6029282;28;20030;-74
2023/12/08 01:10:38;;;;;;;19.00;7.77;;;;;;;-1.52;100.00;100784.63;6027481;28;20045;-74
2023/12/08 01:13:34;;;;;;;24.23;8.40;;;;;;;-1.45;100.00;100797.25;6010116;28;20765;-73
2023/12/08 01:16:29;;;;;;;16.10;6.30;;;;;;;-1.46;100.00;100800.75;6027752;28;20030;-78
2023/12/08 01:19:24;;;;;;;18.63;7.00;;;;;;;-1.54;100.00;100778.63;6027150;28;20066;-74
2023/12/08 01:22:20;;;;;;;18.20;5.93;;;;;;;-1.50;100.00;100786.22;6027497;28;20026;-74
2023/12/08 01:25:15;;;;;;;23.87;8.17;;;;;;;-1.54;100.00;100799.41;6027834;28;20027;-75
2023/12/08 01:28:10;;;;;;;17.83;7.07;;;;;;;-1.56;100.00;100794.28;6027769;28;20027;-74
2023/12/08 01:31:06;;;;;;;21.13;7.05;;;;;;;-1.58;100.00;100797.88;6027113;28;21424;-74
2023/12/08 01:34:01;;;;;;;20.33;7.63;;;;;;;-1.50;100.00;100809.63;6027412;28;20731;-74
2023/12/08 01:36:56;;;;;;;19.40;6.10;;;;;;;-1.56;100.00;100799.50;6031327;28;20533;-73
2023/12/08 01:39:52;;;;;;;20.13;7.83;;;;;;;-1.52;100.00;100795.00;6026600;28;20030;-74
2023/12/08 01:42:47;;;;;;;26.73;8.87;;;;;;;-1.52;100.00;100798.44;6023386;28;20049;-74
2023/12/08 01:45:43;;;;;;;21.58;6.93;;;;;;;-1.53;100.00;100786.38;6028202;28;20461;-74
2023/12/08 01:48:38;;;;;;;23.07;8.70;;;;;;;-1.53;100.00;100783.75;6027180;28;20062;-74
2023/12/08 01:51:33;;;;;;;16.88;5.97;;;;;;;-1.61;100.00;100759.03;6026698;28;20493;-74
2023/12/08 01:54:29;;;;;;;23.40;7.47;;;;;;;-1.55;100.00;100775.16;6026932;28;20042;-73
2023/12/08 01:57:25;;;;;;;16.80;7.25;;;;;;;-1.54;100.00;100768.22;6027084;28;20105;-74
2023/12/08 02:00:20;;;;;;;21.48;7.93;;;;;;;-1.53;100.00;100746.53;6009457;28;20692;-73
2023/12/08 02:03:16;;;;;;;20.73;7.77;;;;;;;-1.54;100.00;100739.63;6026600;28;20034;-74
2023/12/08 02:06:11;;;;;;;21.23;7.10;;;;;;;-1.60;100.00;100735.53;6009837;28;20038;-73
2023/12/08 02:09:07;;;;;;;18.17;6.80;;;;;;;-1.62;100.00;100716.56;6026478;28;20109;-77
2023/12/08 02:12:04;;;;;;;20.08;7.60;;;;;;;-1.61;100.00;100707.88;6031546;28;20634;-74
2023/12/08 02:15:00;;;;;;;23.55;6.90;;;;;;;-1.58;100.00;100715.53;6007965;28;20034;-75
2023/12/08 02:17:56;;;;;;;23.70;9.63;;;;;;;-1.51;100.00;100708.28;6026836;28;20073;-73
2023/12/08 02:20:52;;;;;;;17.70;7.25;;;;;;;-1.56;100.00;100689.47;6008828;28;20396;-74
2023/12/08 02:23:48;;;;;;;19.20;6.03;;;;;;;-1.51;100.00;100684.88;6027064;28;20069;-74
2023/12/08 02:26:43;;;;;;;22.02;8.18;;;;;;;-1.43;100.00;100685.38;6030244;28;20030;-75
2023/12/08 02:29:38;;;;;;;16.23;7.17;;;;;;;-1.47;100.00;100660.44;6026087;28;20496;-74
2023/12/08 02:32:41;;;;;;;19.43;7.50;;;;;;;-1.33;100.00;100661.47;6026082;28;20121;-74
2023/12/08 02:35:39;;;;;;;15.82;6.47;;;;;;;-1.22;100.00;100664.41;6012100;28;20056;-74
2023/12/08 02:38:34;;;;;;;21.90;8.88;;;;;;;-1.10;100.00;100649.13;6008572;28;20050;-73
2023/12/08 02:41:30;;;;;;;18.52;6.82;;;;;;;-1.01;100.00;100640.88;6025964;28;20482;-73
2023/12/08 02:44:25;;;;;;;25.83;8.55;;;;;;;-0.88;100.00;100655.81;6008550;28;20542;-73
2023/12/08 02:47:20;;;;;;;18.77;6.80;;;;;;;-0.89;100.00;100637.66;6032686;28;20031;-73
2023/12/08 02:50:16;;;;;;;18.83;7.57;;;;;;;-0.79;100.00;100646.72;6025446;28;20038;-74
2023/12/08 02:53:11;;;;;;;22.10;9.93;;;;;;;-0.85;100.00;100636.63;6025209;28;20522;-74
2023/12/08 02:56:07;;;;;;;11.23;4.87;;;;;;;-0.83;100.00;100647.78;6025619;28;20041;-74
2023/12/08 02:59:02;;;;;;;22.08;8.18;;;;;;;-0.89;100.00;100645.47;6025570;28;20030;-74
2023/12/08 03:01:57;;;;;;;20.00;7.53;;;;;;;-0.87;100.00;100654.06;6025690;28;20026;-74
2023/12/08 03:04:53;;;;;;;17.47;6.40;;;;;;;-0.83;100.00;100666.00;6007266;28;20031;-74
2023/12/08 03:07:48;;;;;;;20.00;5.83;;;;;;;-0.79;100.00;100673.56;6025989;28;20049;-74
2023/12/08 03:10:43;;;;;;;20.57;8.53;;;;;;;-0.80;100.00;100660.66;6007256;28;20030;-73
2023/12/08 03:13:38;;;;;;;15.17;7.07;;;;;;;-0.85;100.00;100652.22;6025344;28;20492;-74
2023/12/08 03:16:34;;;;;;;15.07;6.90;;;;;;;-0.80;100.00;100651.09;6025152;28;20414;-74
2023/12/08 03:19:29;;;;;;;17.50;5.83;;;;;;;-0.80;100.00;100639.81;6024936;28;20145;-74
2023/12/08 03:22:24;;;;;;;21.57;8.17;;;;;;;-0.78;100.00;100653.59;6024983;28;20026;-74
2023/12/08 03:25:20;;;;;;;19.37;7.20;;;;;;;-0.80;100.00;100650.22;6025549;28;20108;-74
2023/12/08 03:28:15;;;;;;;15.53;6.37;;;;;;;-0.81;100.00;100638.13;6025096;28;20026;-75
2023/12/08 03:31:23;;;;;;;17.40;7.00;;;;;;;-0.81;100.00;100640.72;6024706;28;20030;-77
2023/12/08 03:34:18;;;;;;;;;;;;;;;-0.80;100.00;100630.25;6025484;28;20030;-74
2023/12/08 03:37:13;;;;;;;18.53;6.93;;;;;;;-0.82;100.00;100615.66;6011465;28;19961;-74
2023/12/08 03:40:09;;;;;;;21.33;7.40;;;;;;;-0.79;100.00;100618.91;6024409;28;20036;-75
2023/12/08 03:43:04;;;;;;;12.02;5.07;;;;;;;-0.84;100.00;100607.91;6025213;28;20054;-74
2023/12/08 03:46:00;;;;;;;20.57;7.97;;;;;;;-0.82;100.00;100616.50;6024665;28;20026;-75
2023/12/08 03:48:55;;;;;;;17.80;6.97;;;;;;;-0.73;100.00;100620.38;6024945;28;20043;-75
2023/12/08 03:51:50;;;;;;;16.53;5.83;;;;;;;-0.70;100.00;100617.63;6023884;28;20022;-73
2023/12/08 03:54:46;;;;;;;17.53;6.57;;;;;;;-0.72;100.00;100617.69;6007675;28;20038;-74
2023/12/08 03:57:41;;;;;;;14.07;5.67;;;;;;;-0.68;100.00;100611.41;6024311;28;20540;-74
2023/12/08 04:00:36;;;;;;;20.10;6.53;;;;;;;-0.68;100.00;100594.97;6024610;28;20474;-75
2023/12/08 04:03:32;;;;;;;14.37;5.50;;;;;;;-0.72;100.00;100590.81;6022543;28;20320;-75
2023/12/08 04:06:27;;;;;;;13.87;5.93;;;;;;;-0.75;100.00;100593.56;6024301;28;20509;-74
2023/12/08 04:09:22;;;;;;;15.73;5.77;;;;;;;-0.86;100.00;100578.50;6022714;28;20270;-75
2023/12/08 04:12:17;;;;;;;15.70;6.63;;;;;;;-0.84;100.00;100581.03;6007348;28;20266;-74
2023/12/08 04:15:13;;;;;;;15.50;6.20;;;;;;;-0.80;100.00;100572.16;6023063;28;20031;-74
2023/12/08 04:18:08;;;;;;;14.80;6.03;;;;;;;-0.80;100.00;100574.75;6008878;28;20046;-74
2023/12/08 04:21:03;;;;;;;14.17;5.63;;;;;;;-0.70;100.00;100588.97;6024046;28;20022;-74
2023/12/08 04:23:59;;;;;;;15.90;6.70;;;;;;;-0.71;100.00;100572.50;6022962;28;20066;-73
2023/12/08 04:26:54;;;;;;;13.20;5.30;;;;;;;-0.63;100.00;100569.53;6024601;28;20050;-74
2023/12/08 04:29:49;;;;;;;13.43;4.77;;;;;;;-0.57;100.00;100558.78;6029328;28;20038;-74
2023/12/08 04:32:45;;;;;;;12.77;5.67;;;;;;;-0.48;100.00;100565.28;6028964;28;20038;-74
2023/12/08 04:35:40;;;;;;;16.97;7.70;;;;;;;-0.56;100.00;100547.47;6028450;28;20398;-75
2023/12/08 04:38:35;;;;;;;13.97;6.60;;;;;;;-0.49;100.00;100533.19;6029034;28;20518;-74
2023/12/08 04:41:30;;;;;;;16.27;5.87;;;;;;;-0.44;100.00;100528.59;6030439;28;20050;-74
2023/12/08 04:44:26;;;;;;;14.40;6.73;;;;;;;-0.40;100.00;100534.47;6028583;28;20764;-74
2023/12/08 04:47:21;;;;;;;9.03;3.57;;;;;;;-0.34;100.00;100526.34;6029356;28;20042;-74
2023/12/08 04:50:16;;;;;;;14.30;5.63;;;;;;;-0.35;100.00;100522.88;6027797;28;20029;-76
2023/12/08 04:53:12;;;;;;;9.57;3.85;;;;;;;-0.26;100.00;100529.38;6027735;28;20046;-75
2023/12/08 04:56:08;;;;;;;13.20;5.38;;;;;;;-0.34;100.00;100521.13;6015241;28;20041;-75
2023/12/08 04:59:04;;;;;;;10.95;4.63;;;;;;;-0.28;100.00;100531.22;6028104;28;20068;-74
2023/12/08 05:01:59;;;;;;;14.50;5.45;;;;;;;-0.30;100.00;100531.28;6028170;28;20038;-76
2023/12/08 05:04:55;;;;;;;10.13;3.83;;;;;;;-0.30;100.00;100520.88;6028076;28;20035;-75
2023/12/08 05:07:50;;;;;;;11.10;4.90;;;;;;;-0.46;100.00;100499.16;6011394;28;20041;-77
2023/12/08 05:10:45;;;;;;;14.90;5.10;;;;;;;-0.32;100.00;100527.94;6027646;28;20089;-77
2023/12/08 05:13:40;;;;;;;11.17;3.50;;;;;;;-0.34;100.00;100537.59;6028045;28;20273;-77
2023/12/08 05:16:36;;;;;;;12.43;4.70;;;;;;;-0.38;100.00;100543.88;6027958;28;20034;-76
2023/12/08 05:19:31;;;;;;;10.27;4.27;;;;;;;-0.45;100.00;100532.13;6027052;28;20138;-77
2023/12/08 05:22:26;;;;;;;11.13;4.90;;;;;;;-0.43;100.00;100540.69;6028156;28;20042;-76
2023/12/08 05:25:22;;;;;;;13.70;5.07;;;;;;;-0.36;100.00;100564.66;6027358;28;20042;-76
2023/12/08 05:28:17;;;;;;;12.47;4.60;;;;;;;-0.43;100.00;100550.25;6031641;28;20065;-76
2023/12/08 05:31:12;;;;;;;11.60;4.97;;;;;;;-0.34;100.00;100545.41;6027099;28;20030;-77
2023/12/08 05:34:08;;;;;;;12.90;5.00;;;;;;;-0.43;100.00;100537.22;6009837;28;20672;-75
2023/12/08 05:37:03;;;;;;;11.50;5.20;;;;;;;-0.42;100.00;100539.78;6027357;28;20459;-76
2023/12/08 05:39:58;;;;;;;11.18;5.05;;;;;;;-0.42;100.00;100524.16;6026443;28;20109;-78
2023/12/08 05:42:54;;;;;;;10.43;4.53;;;;;;;-0.39;100.00;100516.19;6008655;28;20478;-76
2023/12/08 05:45:49;;;;;;;13.48;4.63;;;;;;;-0.35;100.00;100507.25;6010928;28;20150;-75
2023/12/08 05:48:44;;;;;;;9.77;4.37;;;;;;;-0.35;100.00;100520.28;6009662;28;20363;-76
2023/12/08 05:51:40;;;;;;;11.00;4.90;;;;;;;-0.41;100.00;100510.22;6029613;28;20513;-74
2023/12/08 05:54:35;;;;;;;11.67;4.87;;;;;;;-0.42;100.00;100510.28;6033459;28;20030;-76
2023/12/08 05:57:30;;;;;;;10.37;3.87;;;;;;;-0.30;100.00;100539.09;6028861;28;20038;-77
2023/12/08 06:00:26;;;;;;;13.87;5.23;;;;;;;-0.36;100.00;100526.44;6007647;28;20034;-78
2023/12/08 06:03:21;;;;;;;11.05;5.13;;;;;;;-0.38;100.00;100522.22;6007619;28;20437;-76
2023/12/08 06:06:16;;;;;;;11.02;4.32;;;;;;;-0.41;100.00;100518.03;6026839;28;20027;-78
2023/12/08 06:09:13;;;;;;;10.05;3.92;;;;;;;-0.39;100.00;100524.00;6030483;28;20080;-76
2023/12/08 06:12:08;;;;;;;14.30;5.68;;;;;;;-0.34;100.00;100531.53;6031337;28;20052;-77
2023/12/08 06:15:06;;;;;;;9.87;4.50;;;;;;;-0.34;100.00;100527.19;5990136;28;20027;-77
2023/12/08 06:18:01;;;;;;;11.90;5.00;;;;;;;-0.34;100.00;100519.38;6026690;28;20474;-77
2023/12/08 06:20:58;;;;;;;10.80;4.13;;;;;;;-0.36;100.00;100521.22;6026082;28;20049;-76
2023/12/08 06:23:53;;;;;;;12.50;6.18;;;;;;;-0.38;100.00;100502.22;6025433;28;20393;-76
2023/12/08 06:26:48;;;;;;;14.37;5.57;;;;;;;-0.40;100.00;100509.28;6026149;28;20030;-77
2023/12/08 06:29:43;;;;;;;13.93;5.70;;;;;;;-0.42;100.00;100505.91;6025674;28;20030;-76
2023/12/08 06:32:39;;;;;;;14.40;5.70;;;;;;;-0.42;100.00;100502.47;6026099;28;20113;-77
2023/12/08 06:35:34;;;;;;;16.87;5.47;;;;;;;-0.37;100.00;100505.66;6025185;28;20034;-77
2023/12/08 06:38:29;;;;;;;20.20;7.70;;;;;;;-0.35;100.00;100504.66;6026298;28;20469;-77
2023/12/08 06:41:25;;;;;;;16.95;6.43;;;;;;;-0.41;100.00;100497.19;6026789;28;20517;-77
2023/12/08 06:44:20;;;;;;;18.80;7.13;;;;;;;-0.33;100.00;100507.19;6027905;28;20026;-77
2023/12/08 06:47:15;;;;;;;17.13;6.27;;;;;;;-0.29;100.00;100512.16;6026753;28;20494;-79
2023/12/08 06:50:11;;;;;;;12.23;4.83;;;;;;;-0.34;100.00;100506.34;6026010;28;20261;-77
2023/12/08 06:53:07;;;;;;;15.03;7.03;;;;;;;-0.33;100.00;100500.22;6023864;28;20089;-77
2023/12/08 06:56:05;;;;;;;14.27;4.97;;;;;;;-0.34;100.00;100503.75;6025379;28;20437;-77
2023/12/08 06:59:00;;;;;;;19.15;7.32;;;;;;;-0.34;100.00;100495.09;6007410;28;20121;-77
2023/12/08 07:01:55;;;;;;;17.00;7.07;;;;;;;-0.36;100.00;100495.19;6025610;28;20046;-78
2023/12/08 07:04:50;;;;;;;16.30;6.10;;;;;;;-0.29;100.00;100506.94;6025140;28;20041;-79
2023/12/08 07:07:47;;;;;;;16.60;6.87;;;;;;;-0.37;100.00;100498.69;6025222;28;20038;-78
2023/12/08 07:10:42;;;;;;;17.92;7.97;;;;;;;-0.35;100.00;100502.03;6006492;28;20032;-77
2023/12/08 07:13:38;;;;;;;18.90;7.70;;;;;;;-0.35;100.00;100502.03;6025840;28;20038;-78
2023/12/08 07:16:33;;;;;;;17.13;6.67;;;;;;;-0.33;100.00;100496.78;6008913;28;20026;-79
2023/12/08 07:19:29;;;;;;;18.40;6.27;;;;;;;-0.32;100.00;100491.47;6025914;28;20045;-77
2023/12/08 07:22:24;;;;;;;14.65;7.20;;;;;;;-0.39;100.00;100482.31;6026183;28;20034;-78
2023/12/08 07:25:19;;;;;;;17.33;7.90;;;;;;;-0.30;100.00;100492.22;6025863;28;20034;-78
2023/12/08 07:28:15;;;;;;;15.53;6.50;;;;;;;-0.26;100.00;100498.97;6031048;28;20273;-79
2023/12/08 07:31:12;;;;;;;16.27;7.17;;;;;;;-0.29;100.00;100496.50;6025801;28;20037;-80
2023/12/08 07:34:07;;;;;;;19.10;6.68;;;;;;;-0.30;100.00;100492.22;6025620;28;20031;-80
2023/12/08 07:37:02;;;;;;;15.10;6.03;;;;;;;-0.35;100.00;100483.81;6025381;28;20113;-79
2023/12/08 07:39:58;;;;;;;15.38;6.85;;;;;;;-0.29;100.00;100486.09;6008052;28;20042;-80
2023/12/08 07:42:53;;;;;;;19.13;7.90;;;;;;;-0.29;100.00;100495.66;6025395;28;20038;-77
2023/12/08 07:45:51;;;;;;;20.20;8.97;;;;;;;-0.27;100.00;100494.66;6010143;28;20277;-79
2023/12/08 07:48:46;;;;;;;20.42;8.27;;;;;;;-0.31;100.00;100479.28;6025731;28;20665;-81
2023/12/08 07:51:41;;;;;;;21.83;8.37;;;;;;;-0.28;100.00;100493.00;6025092;28;20066;-81
2023/12/08 07:54:37;;;;;;;19.00;7.38;;;;;;;-0.36;100.00;100484.75;6025130;28;20089;-79
2023/12/08 07:57:32;;;;;;;16.13;6.27;;;;;;;-0.32;100.00;100496.69;6025209;28;20042;-79
2023/12/08 08:00:27;;;;;;;22.15;7.57;;;;;;;-0.39;100.00;100479.72;6023672;28;20085;-79
2023/12/08 08:03:23;;;;;;;19.90;7.97;;;;;;;-0.37;100.00;100497.84;6008826;28;20098;-80
2023/12/08 08:06:18;;;;;;;18.47;6.63;;;;;;;-0.38;100.00;100496.19;6012848;28;20049;-81
2023/12/08 08:09:13;;;;;;;17.60;7.87;;;;;;;-0.34;100.00;100508.09;6029805;28;20274;-78
2023/12/08 08:12:09;;;;;;;22.80;7.77;;;;;;;-0.44;100.00;100489.53;6012532;28;20296;-78
2023/12/08 08:15:05;;;;;;;18.25;7.28;;;;;;;-0.44;100.00;100486.94;6029629;28;20034;-79
2023/12/08 08:18:00;;;;;;;21.90;7.82;;;;;;;-0.41;100.00;100505.00;6029820;28;20034;-77
2023/12/08 08:20:56;;;;;;;19.42;7.32;;;;;;;-0.38;100.00;100501.41;6012065;28;20076;-76
2023/12/08 08:23:51;;;;;;;21.53;8.73;;;;;;;-0.44;100.00;100497.34;6029598;28;20109;-76
2023/12/08 08:26:47;;;;;;;20.57;7.50;;;;;;;-0.50;100.00;100500.28;6029700;28;20034;-78
2023/12/08 08:29:42;;;;;;;20.27;8.25;;;;;;;-0.51;100.00;100485.56;6034917;28;20061;-79
2023/12/08 08:32:38;;;;;;;23.47;8.40;;;;;;;-0.45;100.00;100495.66;6029722;28;20030;-76
2023/12/08 08:35:33;;;;;;;21.17;7.30;;;;;;;-0.51;100.00;100490.78;6028709;28;20026;-79
2023/12/08 08:38:31;;;;;;;21.97;8.63;;;;;;;-0.47;100.00;100500.13;6029826;28;20056;-78
2023/12/08 08:41:26;;;;;;;28.50;10.27;;;;;;;-0.51;100.00;100490.78;6029673;28;20181;-76
2023/12/08 08:44:22;;;;;;;27.23;8.48;;;;;;;-0.51;100.00;100490.78;6033687;28;20041;-79
2023/12/08 08:47:19;;;;;;;19.60;8.90;;;;;;;-0.53;100.00;100487.41;6031281;28;20031;-77
2023/12/08 08:50:14;;;;;;;23.27;8.77;;;;;;;-0.58;100.00;100502.44;6016835;28;20030;-77
2023/12/08 08:53:09;;;;;;;27.90;9.27;;;;;;;-0.54;100.00;100510.94;6028840;28;20058;-76
2023/12/08 08:56:05;;;;;;;23.20;9.97;;;;;;;-0.55;100.00;100511.84;6028822;28;20034;-76
2023/12/08 08:59:00;;;;;;;23.25;8.73;;;;;;;-0.50;100.00;100517.66;6028623;28;20033;-76
2023/12/08 09:01:55;;;;;;;17.90;7.43;;;;;;;-0.50;100.00;100513.28;6032846;28;20042;-77
2023/12/08 09:04:51;;;;;;;24.88;9.13;;;;;;;-0.57;100.00;100511.91;6031823;28;20030;-76
2023/12/08 09:07:46;;;;;;;24.20;9.27;;;;;;;-0.50;100.00;100518.50;6028746;28;20165;-74
2023/12/08 09:10:45;;;;;;;28.17;10.57;;;;;;;-0.47;100.00;100528.75;6028258;28;20394;-76
2023/12/08 09:13:40;;;;;;;22.73;8.50;;;;;;;-0.41;100.00;100528.44;6030307;28;20040;-76
2023/12/08 09:16:35;;;;;;;26.07;10.33;;;;;;;-0.51;100.00;100511.59;6030525;28;20030;-76
2023/12/08 09:19:31;;;;;;;31.20;11.57;;;;;;;-0.52;100.00;100528.16;6028646;28;20038;-77
2023/12/08 09:22:27;;;;;;;29.90;11.38;;;;;;;-0.48;100.00;100534.88;6028460;28;20041;-73
2023/12/08 09:25:22;;;;;;;33.33;12.10;;;;;;;-0.51;100.00;100528.97;6027837;28;20034;-76
2023/12/08 09:28:17;;;;;;;26.43;11.03;;;;;;;-0.50;100.00;100528.91;6011098;28;20042;-74
2023/12/08 09:31:13;;;;;;;32.47;9.37;;;;;;;-0.57;100.00;100511.91;6031946;28;20046;-76
2023/12/08 09:34:08;;;;;;;26.90;9.87;;;;;;;-0.60;100.00;100514.72;6027888;28;20700;-74
2023/12/08 09:37:03;;;;;;;28.57;10.90;;;;;;;-0.52;100.00;100527.31;6029840;28;20034;-75
2023/12/08 09:39:59;;;;;;;26.05;10.27;;;;;;;-0.50;100.00;100523.72;6027378;28;20037;-74
2023/12/08 09:42:57;;;;;;;20.90;8.40;;;;;;;-0.44;100.00;100512.13;6027877;28;20045;-73
2023/12/08 09:45:54;;;;;;;30.75;11.23;;;;;;;-0.52;100.00;100522.97;6013132;28;20117;-73
2023/12/08 09:48:51;;;;;;;37.78;12.65;;;;;;;-0.45;100.00;100526.06;6024973;28;20469;-74
2023/12/08 09:51:46;;;;;;;28.05;10.30;;;;;;;-0.45;100.00;100506.06;6026864;28;20022;-74
2023/12/08 09:54:43;;;;;;;24.90;8.73;;;;;;;-0.41;100.00;100506.75;6032153;28;20038;-73
2023/12/08 09:57:41;;;;;;;27.27;9.95;;;;;;;-0.36;100.00;100510.81;6027471;28;20039;-73
2023/12/08 10:00:37;;;;;;;24.67;8.32;;;;;;;-0.39;100.00;100500.53;6028155;28;20405;-74
2023/12/08 10:03:33;;;;;;;24.52;9.00;;;;;;;-0.44;100.00;100481.72;6029904;28;20046;-73
2023/12/08 10:06:28;;;;;;;31.52;11.73;;;;;;;-0.43;100.00;100492.97;6027866;28;20042;-73
2023/12/08 10:09:24;;;;;;;24.97;9.33;;;;;;;-0.43;100.00;100493.81;6027009;28;20113;-75
2023/12/08 10:12:19;;;;;;;35.40;13.50;;;;;;;-0.49;100.00;100493.31;6010012;28;20116;-74
2023/12/08 10:15:16;;;;;;;33.23;12.73;;;;;;;-0.49;100.00;100493.31;6026565;28;20042;-73
2023/12/08 10:18:24;;;;;;;24.25;8.70;;;;;;;-0.41;100.00;100486.78;6027713;28;20038;-73
2023/12/08 10:21:19;;;;;;;21.60;9.43;;;;;;;-0.42;100.00;100485.09;6026552;28;20034;-73
2023/12/08 10:24:16;;;;;;;47.92;18.17;;;;;;;-0.44;100.00;100480.88;6026830;28;20034;-72
2023/12/08 10:27:11;;;;;;;28.92;9.63;;;;;;;-0.45;100.00;100480.03;6008602;28;20038;-72
2023/12/08 10:30:07;;;;;;;34.10;14.33;;;;;;;-0.55;100.00;100460.63;6015361;28;20041;-74
2023/12/08 10:33:02;;;;;;;36.22;14.60;;;;;;;-0.58;100.00;100463.41;6026579;28;20065;-75
2023/12/08 10:35:57;;;;;;;33.05;13.00;;;;;;;-0.61;100.00;100464.41;6015345;28;20133;-75
2023/12/08 10:38:53;;;;;;;38.60;14.73;;;;;;;-0.66;100.00;100453.41;6030950;28;20035;-73
2023/12/08 10:41:52;;;;;;;33.73;11.60;;;;;;;-0.56;100.00;100455.50;6008719;28;20474;-72
2023/12/08 10:44:47;;;;;;;26.60;10.95;;;;;;;-0.52;100.00;100457.88;6027802;28;20348;-74
2023/12/08 10:47:44;;;;;;;34.88;12.52;;;;;;;-0.58;100.00;100455.59;6027990;28;20030;-73
2023/12/08 10:50:39;;;;;;;39.55;13.90;;;;;;;-0.64;100.00;100454.16;6028793;28;20544;-74
2023/12/08 10:53:34;;;;;;;37.17;13.60;;;;;;;-0.62;100.00;100454.06;6011163;28;20034;-74
2023/12/08 10:56:30;;;;;;;35.25;12.30;;;;;;;-0.57;100.00;100443.41;6008996;28;20058;-74
2023/12/08 10:59:26;;;;;;;34.10;12.40;;;;;;;-0.56;100.00;100445.91;6008464;28;20045;-74
2023/12/08 11:02:25;;;;;;;30.65;11.80;;;;;;;-0.56;100.00;100435.50;6026357;28;20052;-75
2023/12/08 11:05:37;;;;;;;32.20;9.63;;;;;;;-0.61;100.00;100414.09;6009436;28;20053;-75
2023/12/08 11:08:33;;;;;;;23.90;8.82;;;;;;;-0.56;100.00;100412.06;6025214;28;20034;-75
2023/12/08 11:11:29;;;;;;;28.58;10.45;;;;;;;-0.54;100.00;100405.00;6030056;28;20034;-75
2023/12/08 11:14:37;;;;;;;31.95;11.35;;;;;;;-0.53;100.00;100411.91;6031488;28;20034;-76
2023/12/08 11:17:34;;;;;;;;;;;;;;;-0.53;100.00;100409.31;6025984;28;20046;-76
2023/12/08 11:20:29;;;;;;;32.40;11.27;;;;;;;-0.51;100.00;100407.44;6024550;28;19921;-77
2023/12/08 11:23:25;;;;;;;34.65;12.48;;;;;;;-0.56;100.00;100409.47;6008320;28;20035;-75
2023/12/08 11:26:50;;;;;;;32.43;11.30;;;;;;;-0.53;100.00;100408.47;6008206;28;20500;-74
2023/12/08 11:30:31;;;;;;;36.42;12.65;;;;;;;-0.50;100.00;100414.34;6024359;28;20034;-75
2023/12/08 11:33:30;;;;;;;26.15;9.98;;;;;;;-0.55;100.00;100395.53;5980673;28;20254;-74
2023/12/08 11:36:28;;;;;;;33.38;12.30;;;;;;;-0.56;100.00;100393.84;6007885;28;20054;-76
2023/12/08 11:39:41;;;;;;;33.03;12.80;;;;;;;-0.51;100.00;100410.06;6024621;28;20438;-75
2023/12/08 11:42:47;;;;;;;40.50;14.75;;;;;;;-0.51;100.00;100410.06;6027204;28;20026;-77
2023/12/08 11:45:42;;;;;;;29.90;10.20;;;;;;;-0.55;100.00;100405.94;6035969;28;20042;-76
2023/12/08 11:48:37;;;;;;;33.40;13.50;;;;;;;-0.50;100.00;100411.75;6025237;28;20386;-76
2023/12/08 11:51:36;;;;;;;35.30;12.73;;;;;;;-0.52;100.00;100390.16;6025191;28;20058;-76
2023/12/08 11:55:01;;;;;;;30.73;11.95;;;;;;;-0.40;100.00;100401.66;6025151;28;20030;-76
2023/12/08 11:57:59;;;;;;;30.15;10.18;;;;;;;-0.39;100.00;100401.59;6021660;28;20073;-77
2023/12/08 12:00:59;;;;;;;31.98;11.65;;;;;;;-0.41;100.00;100386.97;6023316;28;20513;-76
2023/12/08 12:03:55;;;;;;;29.80;10.38;;;;;;;-0.34;100.00;100385.69;6027081;28;20030;-77
2023/12/08 12:06:53;;;;;;;33.85;10.70;;;;;;;-0.36;100.00;100391.00;6025615;28;20098;-76
2023/12/08 12:09:50;;;;;;;39.85;16.20;;;;;;;-0.33;100.00;100396.03;6008482;28;20563;-76
2023/12/08 12:12:51;;;;;;;31.00;11.40;;;;;;;-0.34;100.00;100403.91;6024204;28;20490;-75
2023/12/08 12:15:47;;;;;;;35.75;12.95;;;;;;;-0.38;100.00;100397.22;5992542;28;20420;-77
2023/12/08 12:18:43;;;;;;;35.43;13.47;;;;;;;-0.36;100.00;100396.22;6018528;28;20038;-76
2023/12/08 12:21:38;;;;;;;27.33;12.02;;;;;;;-0.31;100.00;100412.41;6020210;28;20049;-76
2023/12/08 12:24:34;;;;;;;34.57;12.97;;;;;;;-0.35;100.00;100407.44;6023271;28;20057;-76
2023/12/08 12:27:30;;;;;;;40.00;12.77;;;;;;;-0.35;100.00;100417.84;6022801;28;20412;-75
2023/12/08 12:30:25;;;;;;;34.53;10.70;;;;;;;-0.32;100.00;100418.53;6022438;28;20035;-74
2023/12/08 12:33:20;;;;;;;31.02;11.00;;;;;;;-0.28;100.00;100420.06;5997726;28;20630;-75
2023/12/08 12:36:16;;;;;;;32.65;10.50;;;;;;;-0.31;100.00;100420.22;6023939;28;20470;-75
2023/12/08 12:39:11;;;;;;;32.42;10.75;;;;;;;-0.29;100.00;100422.72;6019710;28;20477;-75
2023/12/08 12:42:07;;;;;;;37.03;12.98;;;;;;;-0.31;100.00;100408.97;6022512;28;20034;-74
2023/12/08 12:45:03;;;;;;;35.38;13.10;;;;;;;-0.24;100.00;100426.75;6022745;28;20104;-75
2023/12/08 12:48:03;;;;;;;23.42;9.57;;;;;;;-0.23;100.00;100428.47;6021687;28;20394;-76
2023/12/08 12:50:59;;;;;;;38.58;13.23;;;;;;;-0.32;100.00;100408.13;6022077;28;20033;-77
2023/12/08 12:53:54;;;;;;;29.88;11.13;;;;;;;-0.31;100.00;100402.00;6010188;28;20030;-74
2023/12/08 12:56:50;;;;;;;30.87;12.10;;;;;;;-0.27;100.00;100406.09;6009208;28;20393;-75
2023/12/08 12:59:54;;;;;;;35.40;11.85;;;;;;;-0.24;100.00;100413.75;6026398;28;20054;-75
2023/12/08 13:02:50;;;;;;;32.45;11.82;;;;;;;-0.20;100.00;100417.03;6027911;28;20723;-75
2023/12/08 13:05:56;;;;;;;30.37;11.83;;;;;;;-0.22;100.00;100408.47;6027494;28;20038;-74
2023/12/08 13:08:52;;;;;;;27.70;10.00;;;;;;;-0.31;100.00;100388.97;6027769;28;20018;-74
2023/12/08 13:11:48;;;;;;;33.27;11.47;;;;;;;-0.22;100.00;100403.25;6026975;28;20077;-74
2023/12/08 13:14:43;;;;;;;32.58;11.02;;;;;;;-0.15;100.00;100421.06;6027169;28;20364;-74
2023/12/08 13:17:39;;;;;;;35.70;13.43;;;;;;;-0.18;100.00;100410.81;6027370;28;20018;-74